createdAt,value
2023-02-06T00:02:28.297Z,3.33
2023-02-06T00:04:57.338Z,2.80
2023-02-06T00:07:26.565Z,1.93
2023-02-06T00:09:58.535Z,2.30
2023-02-06T00:12:26.988Z,5.27
2023-02-06T00:15:20.490Z,4.00
2023-02-06T00:18:01.096Z,4.10
2023-02-06T00:20:30.338Z,3.60
2023-02-06T00:22:59.044Z,2.57
2023-02-06T00:25:36.276Z,2.30
2023-02-06T00:28:07.218Z,2.83
2023-02-06T00:30:36.226Z,2.33
2023-02-06T00:33:05.921Z,3.60
2023-02-06T00:35:34.803Z,3.27
2023-02-06T00:38:03.791Z,3.60
2023-02-06T00:40:32.224Z,4.67
2023-02-06T00:43:02.096Z,4.63
2023-02-06T00:45:30.589Z,3.13
2023-02-06T00:47:59.224Z,2.70
2023-02-06T00:50:28.604Z,2.90
2023-02-06T00:52:57.307Z,3.37
2023-02-06T00:55:25.864Z,2.73
2023-02-06T00:57:54.528Z,2.70
2023-02-06T01:00:24.854Z,3.53
2023-02-06T01:02:53.707Z,3.80
2023-02-06T01:05:22.706Z,2.50
2023-02-06T01:07:51.186Z,2.63
2023-02-06T01:10:22.428Z,3.00
2023-02-06T01:12:53.127Z,2.80
2023-02-06T01:15:23.635Z,3.30
2023-02-06T01:17:52.209Z,3.17
2023-02-06T01:20:21.779Z,2.90
2023-02-06T01:22:52.337Z,2.90
2023-02-06T01:25:21.164Z,3.30
2023-02-06T01:27:49.736Z,3.60
2023-02-06T01:30:18.823Z,3.73
2023-02-06T01:32:48.927Z,3.87
2023-02-06T01:35:17.760Z,2.70
2023-02-06T01:37:46.189Z,3.70
2023-02-06T01:40:17.655Z,2.57
2023-02-06T01:42:46.611Z,2.70
2023-02-06T01:45:34.901Z,2.97
2023-02-06T01:48:07.456Z,3.10
2023-02-06T01:50:37.933Z,4.83
2023-02-06T01:53:08.404Z,3.00
2023-02-06T01:55:40.930Z,4.40
2023-02-06T01:58:10.569Z,3.10
2023-02-06T02:00:39.543Z,2.77
2023-02-06T02:03:09.944Z,2.20
2023-02-06T02:05:40.517Z,2.27
2023-02-06T02:08:13.387Z,2.30
2023-02-06T02:10:42.128Z,3.00
2023-02-06T02:13:11.298Z,2.80
2023-02-06T02:15:44.508Z,3.40
2023-02-06T02:18:49.982Z,3.87
2023-02-06T02:21:53.314Z,3.33
2023-02-06T02:24:40.059Z,2.43
2023-02-06T02:27:21.157Z,3.00
2023-02-06T02:30:46.546Z,3.30
2023-02-06T02:33:54.313Z,2.70
2023-02-06T02:36:28.905Z,2.60
2023-02-06T02:39:03.048Z,4.10
2023-02-06T02:41:35.802Z,4.10
2023-02-06T02:44:08.765Z,3.80
2023-02-06T02:46:39.962Z,3.13
2023-02-06T02:49:23.574Z,3.37
2023-02-06T02:51:53.775Z,4.03
2023-02-06T02:54:22.885Z,3.00
2023-02-06T02:56:51.596Z,4.50
2023-02-06T02:59:24.440Z,3.97
2023-02-06T03:01:57.492Z,4.80
2023-02-06T03:04:31.139Z,2.97
2023-02-06T03:07:08.595Z,3.73
2023-02-06T03:09:47.080Z,5.17
2023-02-06T03:12:21.660Z,4.63
2023-02-06T03:14:53.774Z,3.20
2023-02-06T03:17:30.464Z,2.77
2023-02-06T03:20:00.068Z,2.33
2023-02-06T03:22:30.859Z,3.03
2023-02-06T03:24:59.743Z,3.53
2023-02-06T03:27:29.724Z,4.40
2023-02-06T03:30:00.744Z,5.23
2023-02-06T03:32:32.509Z,4.47
2023-02-06T03:35:05.546Z,4.90
2023-02-06T03:37:36.441Z,3.97
2023-02-06T03:40:06.772Z,3.97
2023-02-06T03:42:37.281Z,3.70
2023-02-06T03:45:10.076Z,4.20
2023-02-06T03:47:40.476Z,3.00
2023-02-06T03:50:11.356Z,2.77
2023-02-06T03:52:44.521Z,3.13
2023-02-06T03:55:15.153Z,3.00
2023-02-06T03:57:47.377Z,3.20
2023-02-06T04:00:16.919Z,2.80
2023-02-06T04:02:47.629Z,2.77
2023-02-06T04:05:17.474Z,3.30
2023-02-06T04:07:47.260Z,5.83
2023-02-06T04:10:15.736Z,7.70
2023-02-06T04:12:44.419Z,6.30
2023-02-06T04:15:13.137Z,5.10
2023-02-06T04:17:58.808Z,4.27
2023-02-06T04:20:29.038Z,2.40
2023-02-06T04:22:59.377Z,3.30
2023-02-06T04:25:28.041Z,2.93
2023-02-06T04:27:56.528Z,4.20
2023-02-06T04:30:25.305Z,7.53
2023-02-06T04:32:54.448Z,6.73
2023-02-06T04:35:22.977Z,12.87
2023-02-06T04:37:51.561Z,9.90
2023-02-06T04:40:21.871Z,5.90
2023-02-06T04:42:50.397Z,7.47
2023-02-06T04:45:19.192Z,8.60
2023-02-06T04:48:01.540Z,14.43
2023-02-06T04:50:32.126Z,12.10
2023-02-06T04:53:01.057Z,13.57
2023-02-06T04:55:31.100Z,9.03
2023-02-06T04:58:00.064Z,5.53
2023-02-06T05:00:29.826Z,18.93
2023-02-06T05:02:58.853Z,14.67
2023-02-06T05:05:27.248Z,14.37
2023-02-06T05:08:06.329Z,12.77
2023-02-06T05:10:36.176Z,14.33
2023-02-06T05:13:04.668Z,10.40
2023-02-06T05:15:33.148Z,11.70
2023-02-06T05:18:01.952Z,9.83
2023-02-06T05:20:30.617Z,5.77
2023-02-06T05:23:02.405Z,4.00
2023-02-06T05:25:31.263Z,3.43
2023-02-06T05:28:01.714Z,3.57
2023-02-06T05:30:30.209Z,3.70
2023-02-06T05:32:58.910Z,4.10
2023-02-06T05:35:27.470Z,3.83
2023-02-06T05:37:56.020Z,3.53
2023-02-06T05:40:51.710Z,7.07
2023-02-06T05:43:21.880Z,7.77
2023-02-06T05:45:50.424Z,7.77
2023-02-06T05:48:19.096Z,4.80
2023-02-06T05:50:50.964Z,3.63
2023-02-06T05:53:19.835Z,4.67
2023-02-06T05:55:48.425Z,4.00
2023-02-06T05:58:31.793Z,11.00
2023-02-06T06:01:00.748Z,14.23
2023-02-06T06:03:31.920Z,10.40
2023-02-06T06:06:02.293Z,14.73
2023-02-06T06:08:31.322Z,13.23
2023-02-06T06:11:20.620Z,6.40
2023-02-06T06:13:51.038Z,6.87
2023-02-06T06:16:19.834Z,4.70
2023-02-06T06:18:48.641Z,3.80
2023-02-06T06:21:17.093Z,3.50
2023-02-06T06:23:45.810Z,2.90
2023-02-06T06:27:04.593Z,3.73
2023-02-06T06:29:34.575Z,4.67
2023-02-06T06:32:03.137Z,3.50
2023-02-06T06:34:31.712Z,4.60
2023-02-06T06:37:00.738Z,5.27
2023-02-06T06:39:29.238Z,3.07
2023-02-06T06:41:57.795Z,3.00
2023-02-06T06:44:26.272Z,3.60
2023-02-06T06:46:56.336Z,2.93
2023-02-06T06:49:25.094Z,3.20
2023-02-06T06:51:53.844Z,2.60
2023-02-06T06:54:23.231Z,3.87
2023-02-06T06:57:53.320Z,2.70
2023-02-06T07:00:22.569Z,3.33
2023-02-06T07:03:08.142Z,3.00
2023-02-06T07:05:37.074Z,2.60
2023-02-06T07:08:06.722Z,2.40
2023-02-06T07:10:35.288Z,3.00
2023-02-06T07:13:03.829Z,4.07
2023-02-06T07:15:33.133Z,6.83
2023-02-06T07:18:03.084Z,6.70
2023-02-06T07:20:31.888Z,4.57
2023-02-06T07:23:01.837Z,2.50
2023-02-06T07:25:30.591Z,5.73
2023-02-06T07:27:59.255Z,2.33
2023-02-06T07:30:27.877Z,3.53
2023-02-06T07:32:56.806Z,4.73
2023-02-06T07:35:26.628Z,6.53
2023-02-06T07:38:17.044Z,4.03
2023-02-06T07:40:46.216Z,2.50
2023-02-06T07:43:16.453Z,2.40
2023-02-06T07:45:45.277Z,2.20
2023-02-06T07:48:17.185Z,3.37
2023-02-06T07:50:48.456Z,3.70
2023-02-06T07:53:17.548Z,2.80
2023-02-06T07:55:45.892Z,3.07
2023-02-06T07:58:14.741Z,3.70
2023-02-06T08:00:45.836Z,4.53
2023-02-06T08:06:50.693Z,2.90
2023-02-06T08:09:19.284Z,3.17
2023-02-06T08:11:48.078Z,4.67
2023-02-06T08:14:19.617Z,4.80
2023-02-06T08:16:52.020Z,3.80
2023-02-06T08:19:21.012Z,4.10
2023-02-06T08:21:51.110Z,3.43
2023-02-06T08:24:19.699Z,2.93
2023-02-06T08:26:50.940Z,4.10
2023-02-06T08:29:19.687Z,2.87
2023-02-06T08:31:48.706Z,4.47
2023-02-06T08:34:19.539Z,2.83
2023-02-06T08:36:48.636Z,3.20
2023-02-06T08:39:19.501Z,3.50
2023-02-06T08:41:50.088Z,4.77
2023-02-06T08:44:19.631Z,4.13
2023-02-06T08:46:52.360Z,3.30
2023-02-06T08:49:26.553Z,3.60
2023-02-06T08:51:55.616Z,3.20
2023-02-06T08:54:25.807Z,3.50
2023-02-06T08:56:56.507Z,3.20
2023-02-06T08:59:25.606Z,9.50
2023-02-06T09:01:54.239Z,9.93
2023-02-06T09:04:23.151Z,5.47
2023-02-06T09:06:52.373Z,4.70
2023-02-06T09:09:21.398Z,6.60
2023-02-06T09:11:55.747Z,21.43
2023-02-06T09:14:27.554Z,32.70
2023-02-06T09:16:57.401Z,26.73
2023-02-06T09:19:26.343Z,10.83
2023-02-06T09:21:55.320Z,11.43
2023-02-06T09:24:24.128Z,5.97
2023-02-06T09:26:59.712Z,5.17
2023-02-06T09:29:32.206Z,4.43
2023-02-06T09:32:01.447Z,4.97
2023-02-06T09:34:30.539Z,4.87
2023-02-06T09:37:01.623Z,3.80
2023-02-06T09:39:30.429Z,3.80
2023-02-06T09:42:04.855Z,2.93
2023-02-06T09:44:35.776Z,3.00
2023-02-06T09:47:06.632Z,2.60
2023-02-06T09:49:40.801Z,3.17
2023-02-06T09:53:01.398Z,3.10
2023-02-06T09:55:36.141Z,2.47
2023-02-06T09:58:19.439Z,2.67
2023-02-06T10:00:52.287Z,3.80
2023-02-06T10:03:31.755Z,2.83
2023-02-06T10:06:19.422Z,2.90
2023-02-06T10:08:55.676Z,3.60
2023-02-06T10:11:48.209Z,3.90
2023-02-06T10:14:22.993Z,3.70
2023-02-06T10:16:56.928Z,3.50
2023-02-06T10:19:36.452Z,3.50
2023-02-06T10:22:08.730Z,3.87
2023-02-06T10:24:46.424Z,5.83
2023-02-06T10:27:16.488Z,3.80
2023-02-06T10:29:47.965Z,4.77
2023-02-06T10:32:37.608Z,5.37
2023-02-06T10:35:24.415Z,4.63
2023-02-06T10:38:35.878Z,5.60
2023-02-06T10:41:10.154Z,8.83
2023-02-06T10:43:45.021Z,7.43
2023-02-06T10:46:46.539Z,6.47
2023-02-06T10:49:24.712Z,4.90
2023-02-06T10:51:54.974Z,4.77
2023-02-06T10:54:26.320Z,4.43
2023-02-06T10:56:56.210Z,3.77
2023-02-06T10:59:30.548Z,4.50
2023-02-06T11:02:14.165Z,3.53
2023-02-06T11:04:46.070Z,4.50
2023-02-06T11:07:18.189Z,3.27
2023-02-06T11:09:47.214Z,3.60
2023-02-06T11:12:30.128Z,4.70
2023-02-06T11:15:00.927Z,4.27
2023-02-06T11:17:35.421Z,4.83
2023-02-06T11:20:17.943Z,5.47
2023-02-06T11:22:52.717Z,4.50
2023-02-06T11:25:29.128Z,4.67
2023-02-06T11:27:58.221Z,4.53
2023-02-06T11:30:33.795Z,4.77
2023-02-06T11:33:07.149Z,5.07
2023-02-06T11:35:39.479Z,3.77
2023-02-06T11:38:33.292Z,5.17
2023-02-06T11:41:03.675Z,5.40
2023-02-06T11:43:34.123Z,4.93
2023-02-06T11:46:15.447Z,5.53
2023-02-06T11:48:47.181Z,6.30
2023-02-06T11:51:17.285Z,5.70
2023-02-06T11:53:57.766Z,5.90
2023-02-06T11:56:27.195Z,5.40
2023-02-06T11:59:08.242Z,6.50
2023-02-06T12:01:43.750Z,5.60
2023-02-06T12:04:24.096Z,5.80
2023-02-06T12:06:56.748Z,5.00
2023-02-06T12:09:25.490Z,6.10
2023-02-06T12:12:01.089Z,6.30
2023-02-06T12:14:34.856Z,5.50
2023-02-06T12:17:05.266Z,5.10
2023-02-06T12:19:43.654Z,5.47
2023-02-06T12:22:18.281Z,4.10
2023-02-06T12:24:49.837Z,4.43
2023-02-06T12:27:22.409Z,5.03
2023-02-06T12:29:57.842Z,5.17
2023-02-06T12:32:44.710Z,6.30
2023-02-06T12:35:22.780Z,5.60
2023-02-06T12:37:55.548Z,5.70
2023-02-06T12:40:40.452Z,5.40
2023-02-06T12:43:11.762Z,5.63
2023-02-06T12:45:46.573Z,5.57
2023-02-06T12:48:23.449Z,5.20
2023-02-06T12:51:01.157Z,4.70
2023-02-06T12:53:32.935Z,4.60
2023-02-06T12:56:23.759Z,5.60
2023-02-06T12:58:59.855Z,5.57
2023-02-06T13:01:43.981Z,4.97
2023-02-06T13:04:16.377Z,5.20
2023-02-06T13:06:53.663Z,4.83
2023-02-06T13:09:26.573Z,4.67
2023-02-06T13:11:55.315Z,4.40
2023-02-06T13:14:26.045Z,5.37
2023-02-06T13:17:00.378Z,6.30
2023-02-06T13:19:53.582Z,5.60
2023-02-06T13:22:49.550Z,5.60
2023-02-06T13:26:02.331Z,5.03
2023-02-06T13:29:03.673Z,5.07
2023-02-06T13:31:35.745Z,5.20
2023-02-06T13:34:17.678Z,5.20
2023-02-06T13:36:52.599Z,5.90
2023-02-06T13:39:33.465Z,5.03
2023-02-06T13:42:29.671Z,4.47
2023-02-06T13:44:59.444Z,4.73
2023-02-06T13:47:50.454Z,4.67
2023-02-06T13:50:29.712Z,5.03
2023-02-06T13:53:26.138Z,5.13
2023-02-06T13:56:31.310Z,5.00
2023-02-06T13:59:06.731Z,4.90
2023-02-06T14:01:35.987Z,4.03
2023-02-06T14:04:09.275Z,5.23
2023-02-06T14:07:02.272Z,4.10
2023-02-06T14:09:43.062Z,4.30
2023-02-06T14:12:34.297Z,6.20
2023-02-06T14:15:26.260Z,5.83
2023-02-06T14:18:16.269Z,23.00
2023-02-06T14:20:51.272Z,20.90
2023-02-06T14:23:28.983Z,15.83
2023-02-06T14:26:06.948Z,9.90
2023-02-06T14:28:45.554Z,10.23
2023-02-06T14:31:25.112Z,31.67
2023-02-06T14:34:24.660Z,29.63
2023-02-06T14:37:06.589Z,15.67
2023-02-06T14:39:40.172Z,10.40
2023-02-06T14:42:13.386Z,7.67
2023-02-06T14:44:44.702Z,11.40
2023-02-06T14:47:19.304Z,7.40
2023-02-06T14:49:48.833Z,6.87
2023-02-06T14:52:21.175Z,24.30
2023-02-06T14:54:50.269Z,23.63
2023-02-06T14:57:24.210Z,18.27
2023-02-06T14:59:59.652Z,10.10
2023-02-06T15:02:34.267Z,7.00
2023-02-06T15:05:03.908Z,8.17
2023-02-06T15:07:34.455Z,14.27
2023-02-06T15:10:07.595Z,5.73
2023-02-06T15:12:37.007Z,5.80
2023-02-06T15:15:18.662Z,5.07
2023-02-06T15:17:58.901Z,14.37
2023-02-06T15:20:31.338Z,11.23
2023-02-06T15:23:17.666Z,7.57
2023-02-06T15:26:04.762Z,9.50
2023-02-06T15:28:37.953Z,8.17
2023-02-06T15:31:20.488Z,7.67
2023-02-06T15:34:04.227Z,7.67
2023-02-06T15:36:37.685Z,8.60
2023-02-06T15:39:09.787Z,8.97
2023-02-06T15:41:38.765Z,10.70
2023-02-06T15:44:14.171Z,8.93
2023-02-06T15:46:44.882Z,8.20
2023-02-06T15:49:19.531Z,6.80
2023-02-06T15:51:53.961Z,7.50
2023-02-06T15:54:24.373Z,7.83
2023-02-06T15:56:55.496Z,6.80
2023-02-06T15:59:28.096Z,6.57
2023-02-06T16:01:59.330Z,6.47
2023-02-06T16:04:32.728Z,7.37
2023-02-06T16:07:04.568Z,5.90
2023-02-06T16:09:33.465Z,8.03
2023-02-06T16:12:02.644Z,4.83
2023-02-06T16:14:35.250Z,7.00
2023-02-06T16:17:08.107Z,7.07
2023-02-06T16:19:46.164Z,6.40
2023-02-06T16:22:19.463Z,5.33
2023-02-06T16:24:48.222Z,4.50
2023-02-06T16:27:19.584Z,5.13
2023-02-06T16:29:53.791Z,3.43
2023-02-06T16:32:32.962Z,3.00
2023-02-06T16:35:02.461Z,3.60
2023-02-06T16:37:32.247Z,3.73
2023-02-06T16:40:27.706Z,3.00
2023-02-06T16:42:57.130Z,2.73
2023-02-06T16:45:27.551Z,44.77
2023-02-06T16:48:03.709Z,4.83
2023-02-06T16:53:30.513Z,2.87
2023-02-06T16:55:59.022Z,3.23
2023-02-06T16:58:30.445Z,3.07
2023-02-06T17:01:02.149Z,3.60
2023-02-06T17:03:32.855Z,4.60
2023-02-06T17:06:02.072Z,2.73
2023-02-06T17:08:30.970Z,2.80
2023-02-06T17:11:00.361Z,3.60
2023-02-06T17:13:29.033Z,3.57
2023-02-06T17:15:57.809Z,3.23
2023-02-06T17:18:29.282Z,4.00
2023-02-06T17:20:59.319Z,4.23
2023-02-06T17:23:27.874Z,9.40
2023-02-06T17:25:56.756Z,6.73
2023-02-06T17:28:25.771Z,10.63
2023-02-06T17:30:54.905Z,24.83
2023-02-06T17:33:23.959Z,22.33
2023-02-06T17:35:57.617Z,17.10
2023-02-06T17:38:27.481Z,10.87
2023-02-06T17:40:56.661Z,9.40
2023-02-06T17:43:25.731Z,5.37
2023-02-06T17:45:57.419Z,4.87
2023-02-06T17:48:26.123Z,4.20
2023-02-06T17:50:54.728Z,10.33
2023-02-06T17:53:23.501Z,15.37
2023-02-06T17:55:53.603Z,22.97
2023-02-06T17:58:22.872Z,15.23
2023-02-06T18:00:51.613Z,10.00
2023-02-06T18:03:20.117Z,4.90
2023-02-06T18:05:57.658Z,5.70
2023-02-06T18:08:30.332Z,4.80
2023-02-06T18:11:00.679Z,4.80
2023-02-06T18:13:31.493Z,4.40
2023-02-06T18:16:00.171Z,4.47
2023-02-06T18:18:28.893Z,5.33
2023-02-06T18:20:57.365Z,6.23
2023-02-06T18:23:26.801Z,4.90
2023-02-06T18:25:55.454Z,4.20
2023-02-06T18:28:25.999Z,4.80
2023-02-06T18:30:54.691Z,4.20
2023-02-06T18:33:23.519Z,4.70
2023-02-06T18:35:52.277Z,5.60
2023-02-06T18:38:21.171Z,4.40
2023-02-06T18:40:50.479Z,6.33
2023-02-06T18:46:09.049Z,4.60
2023-02-06T18:48:37.614Z,5.00
2023-02-06T18:51:08.757Z,6.00
2023-02-06T18:53:37.518Z,6.03
2023-02-06T18:56:08.818Z,6.33
2023-02-06T18:58:37.763Z,4.23
2023-02-06T19:01:14.372Z,4.73
2023-02-06T19:03:43.609Z,5.37
2023-02-06T19:06:17.845Z,5.33
2023-02-06T19:08:49.675Z,5.87
2023-02-06T19:11:21.678Z,4.87
2023-02-06T19:13:50.687Z,5.00
2023-02-06T19:16:21.883Z,4.43
2023-02-06T19:18:51.009Z,5.27
2023-02-06T19:21:24.466Z,9.60
2023-02-06T19:23:56.542Z,7.30
2023-02-06T19:26:41.560Z,5.47
2023-02-06T19:29:10.899Z,6.17
2023-02-06T19:31:42.857Z,4.70
2023-02-06T19:34:13.956Z,5.90
2023-02-06T19:36:45.179Z,6.10
2023-02-06T19:39:15.062Z,7.00
2023-02-06T19:41:45.544Z,6.83
2023-02-06T19:44:16.008Z,5.83
2023-02-06T19:46:46.395Z,5.03
2023-02-06T19:49:24.474Z,5.83
2023-02-06T19:51:53.525Z,5.13
2023-02-06T19:54:23.052Z,5.90
2023-02-06T19:56:52.088Z,5.43
2023-02-06T19:59:22.550Z,4.20
2023-02-06T20:01:54.403Z,4.40
2023-02-06T20:04:24.806Z,5.80
2023-02-06T20:06:54.126Z,9.23
2023-02-06T20:09:24.213Z,8.00
2023-02-06T20:11:52.965Z,7.20
2023-02-06T20:14:23.852Z,5.73
2023-02-06T20:16:54.029Z,4.57
2023-02-06T20:19:25.688Z,5.00
2023-02-06T20:21:56.542Z,6.00
2023-02-06T20:24:27.684Z,4.73
2023-02-06T20:26:59.188Z,4.90
2023-02-06T20:29:33.000Z,6.00
2023-02-06T20:32:04.331Z,18.77
2023-02-06T20:34:36.591Z,16.87
2023-02-06T20:37:06.837Z,14.30
2023-02-06T20:39:36.002Z,11.67
2023-02-06T20:42:07.044Z,9.00
2023-02-06T20:44:36.070Z,7.60
2023-02-06T20:47:06.126Z,8.77
2023-02-06T20:49:35.008Z,7.47
2023-02-06T20:52:16.240Z,8.00
2023-02-06T20:54:47.020Z,5.80
2023-02-06T20:57:15.825Z,6.30
2023-02-06T20:59:45.292Z,5.50
2023-02-06T21:02:17.312Z,5.20
2023-02-06T21:04:47.533Z,4.40
2023-02-06T21:07:20.071Z,5.27
2023-02-06T21:09:48.779Z,3.87
2023-02-06T21:12:18.126Z,4.20
2023-02-06T21:14:46.794Z,4.53
2023-02-06T21:17:19.671Z,4.03
2023-02-06T21:19:48.407Z,5.40
2023-02-06T21:22:21.916Z,3.80
2023-02-06T21:24:51.032Z,4.87
2023-02-06T21:27:19.808Z,5.10
2023-02-06T21:29:52.063Z,4.90
2023-02-06T21:32:22.300Z,5.10
2023-02-06T21:34:50.981Z,4.47
2023-02-06T21:37:22.729Z,5.23
2023-02-06T21:39:51.309Z,4.87
2023-02-06T21:42:26.765Z,4.60
2023-02-06T21:44:55.442Z,4.90
2023-02-06T21:47:25.305Z,4.97
2023-02-06T21:49:54.131Z,5.23
2023-02-06T21:52:23.061Z,3.80
2023-02-06T21:54:52.024Z,5.10
2023-02-06T21:57:20.490Z,4.43
2023-02-06T21:59:49.419Z,5.50
2023-02-06T22:02:17.987Z,4.80
2023-02-06T22:04:48.213Z,4.67
2023-02-06T22:07:17.205Z,4.47
2023-02-06T22:09:45.844Z,4.30
2023-02-06T22:12:17.106Z,4.70
2023-02-06T22:14:45.976Z,5.13
2023-02-06T22:17:14.351Z,4.57
2023-02-06T22:19:43.730Z,4.10
2023-02-06T22:22:13.911Z,5.00
2023-02-06T22:24:44.331Z,5.53
2023-02-06T22:27:13.182Z,4.70
2023-02-06T22:29:42.380Z,4.60
2023-02-06T22:32:10.939Z,5.07
2023-02-06T22:34:39.418Z,4.37
2023-02-06T22:37:08.113Z,4.07
2023-02-06T22:39:38.386Z,4.63
2023-02-06T22:42:07.563Z,3.93
2023-02-06T22:44:36.000Z,5.20
2023-02-06T22:47:04.652Z,4.77
2023-02-06T22:49:33.697Z,5.17
2023-02-06T22:52:02.463Z,5.07
2023-02-06T22:54:30.943Z,4.20
2023-02-06T22:57:18.837Z,5.03
2023-02-06T22:59:47.497Z,4.70
2023-02-06T23:02:15.918Z,4.90
2023-02-06T23:04:44.748Z,4.87
2023-02-06T23:07:14.699Z,4.50
2023-02-06T23:09:44.291Z,5.03
2023-02-06T23:12:14.451Z,4.67
2023-02-06T23:14:44.496Z,4.17
2023-02-06T23:17:13.218Z,5.87
2023-02-06T23:19:41.760Z,4.90
2023-02-06T23:22:15.488Z,4.50
2023-02-06T23:24:46.147Z,4.03
2023-02-06T23:27:21.655Z,4.40
2023-02-06T23:29:50.560Z,5.63
2023-02-06T23:32:58.470Z,5.90
2023-02-06T23:35:27.338Z,6.50
2023-02-06T23:37:56.675Z,5.37
2023-02-06T23:40:25.300Z,5.00
2023-02-06T23:42:56.176Z,5.07
2023-02-06T23:45:25.197Z,5.40
2023-02-06T23:47:54.592Z,5.40
2023-02-06T23:50:23.682Z,5.17
2023-02-06T23:52:52.512Z,6.00
2023-02-06T23:55:25.137Z,5.03
2023-02-06T23:57:53.657Z,4.90
